Alyeska Resort
Max's Hourly Weather Roundup
ALYESKA_MAX 9/16/2014
Click Here for Graph

        DATE  TIME   Air  Wind  Wind  Wind  BATT   Rel
                    Temp   Spd   Dir  Gust  Volt  Hum%
                      F   MPH   AVG   MPH   AVG   AVG

   9/16/2014 03:00    40     5   118    14 12.78   100
   9/16/2014 02:00    40    10   117    18 12.81   100
   9/16/2014 01:00    41    10   112    16 12.83   100
   9/15/2014 24:00    41    11   103    22 12.86    98
   9/15/2014 23:00    41    11   104    22 12.89    97
   9/15/2014 22:00    41    13   106    25 12.92    98
   9/15/2014 21:00    41    12   110    26 12.97    99
   9/15/2014 20:00    40    10   100    22 13.07   100
   9/15/2014 19:00    41    10   109    22 13.23   100
   9/15/2014 18:00    41    10    97    30 13.49    96
   9/15/2014 17:00    41    13    92    37 13.70    97
   9/15/2014 16:00    40    12    81    28 13.35    97
   9/15/2014 15:00    41    11   102    36 13.53    97
   9/15/2014 14:00    41     6   191    25 13.66    98
   9/15/2014 13:00    41    11   155    36 13.58    98
   9/15/2014 12:00    41    13   108    31 13.73    98
   9/15/2014 11:00    41     7   178    35 13.69    97
   9/15/2014 10:00    40     8   179    26 13.20    96
   9/15/2014 09:00    40     5   190    19 12.77    97
   9/15/2014 08:00    41    10    93    28 12.77    94
   9/15/2014 07:00    42    10    79    25 12.78    92
   9/15/2014 06:00    42     6   209    22 12.80    90
   9/15/2014 05:00    42     5   155    16 12.81    88
   9/15/2014 04:00    42     6   178    22 12.83    88


Click Here for Graph